sensor_id;sensor_type;location;lat;lon;timestamp;temperature;humidity
12408;DHT22;6268;48.188;17.134;2024-01-16T00:02:54;2.20;99.90
12408;DHT22;6268;48.188;17.134;2024-01-16T00:17:48;1.80;99.90
12408;DHT22;6268;48.188;17.134;2024-01-16T01:00:06;1.80;99.90
12408;DHT22;6268;48.188;17.134;2024-01-16T01:02:36;1.60;99.90
12408;DHT22;6268;48.188;17.134;2024-01-16T01:05:07;1.60;99.90
12408;DHT22;6268;48.188;17.134;2024-01-16T01:07:35;1.60;99.90
12408;DHT22;6268;48.188;17.134;2024-01-16T01:10:04;1.60;99.90
12408;DHT22;6268;48.188;17.134;2024-01-16T01:12:35;1.60;99.90
12408;DHT22;6268;48.188;17.134;2024-01-16T01:15:04;1.60;99.90
12408;DHT22;6268;48.188;17.134;2024-01-16T01:17:33;1.60;99.90
12408;DHT22;6268;48.188;17.134;2024-01-16T01:20:02;1.60;99.90
12408;DHT22;6268;48.188;17.134;2024-01-16T01:22:30;1.60;99.90
12408;DHT22;6268;48.188;17.134;2024-01-16T01:39:52;1.60;99.90
12408;DHT22;6268;48.188;17.134;2024-01-16T01:42:21;1.60;99.90
12408;DHT22;6268;48.188;17.134;2024-01-16T02:04:44;1.50;99.90
12408;DHT22;6268;48.188;17.134;2024-01-16T02:07:14;1.40;99.90
12408;DHT22;6268;48.188;17.134;2024-01-16T02:09:43;1.40;99.90
12408;DHT22;6268;48.188;17.134;2024-01-16T02:12:12;1.30;99.90
12408;DHT22;6268;48.188;17.134;2024-01-16T02:14:40;1.30;99.90
12408;DHT22;6268;48.188;17.134;2024-01-16T02:17:09;1.30;99.90
12408;DHT22;6268;48.188;17.134;2024-01-16T02:19:37;1.30;99.90
12408;DHT22;6268;48.188;17.134;2024-01-16T02:22:09;1.30;99.90
12408;DHT22;6268;48.188;17.134;2024-01-16T02:24:41;1.30;99.90
12408;DHT22;6268;48.188;17.134;2024-01-16T02:27:10;1.30;99.90
12408;DHT22;6268;48.188;17.134;2024-01-16T04:14:10;1.30;99.90
12408;DHT22;6268;48.188;17.134;2024-01-16T04:16:38;1.10;99.90
12408;DHT22;6268;48.188;17.134;2024-01-16T04:19:07;1.00;99.90
12408;DHT22;6268;48.188;17.134;2024-01-16T04:21:36;1.00;99.90
12408;DHT22;6268;48.188;17.134;2024-01-16T04:24:05;1.00;99.90
12408;DHT22;6268;48.188;17.134;2024-01-16T04:26:37;1.00;99.90
12408;DHT22;6268;48.188;17.134;2024-01-16T04:29:05;1.00;99.90
12408;DHT22;6268;48.188;17.134;2024-01-16T04:31:39;1.00;99.90
12408;DHT22;6268;48.188;17.134;2024-01-16T04:34:08;1.00;99.90
12408;DHT22;6268;48.188;17.134;2024-01-16T04:36:37;1.00;99.90
12408;DHT22;6268;48.188;17.134;2024-01-16T04:39:05;1.00;99.90
12408;DHT22;6268;48.188;17.134;2024-01-16T04:41:34;1.00;99.90
12408;DHT22;6268;48.188;17.134;2024-01-16T04:44:04;1.00;99.90
12408;DHT22;6268;48.188;17.134;2024-01-16T04:46:33;1.00;99.90
12408;DHT22;6268;48.188;17.134;2024-01-16T04:49:01;1.00;99.90
12408;DHT22;6268;48.188;17.134;2024-01-16T04:51:30;1.00;99.90
12408;DHT22;6268;48.188;17.134;2024-01-16T04:53:58;1.00;99.90
12408;DHT22;6268;48.188;17.134;2024-01-16T04:56:27;1.00;99.90
12408;DHT22;6268;48.188;17.134;2024-01-16T04:58:55;1.00;99.90
12408;DHT22;6268;48.188;17.134;2024-01-16T07:03:36;0.90;99.90
12408;DHT22;6268;48.188;17.134;2024-01-16T07:06:05;1.40;99.90
12408;DHT22;6268;48.188;17.134;2024-01-16T07:16:05;1.60;99.90
12408;DHT22;6268;48.188;17.134;2024-01-16T07:18:33;2.60;99.90
12408;DHT22;6268;48.188;17.134;2024-01-16T07:21:02;2.90;99.90
12408;DHT22;6268;48.188;17.134;2024-01-16T07:23:31;3.20;99.70
12408;DHT22;6268;48.188;17.134;2024-01-16T07:25:59;3.50;98.50
12408;DHT22;6268;48.188;17.134;2024-01-16T07:28:31;3.70;96.50
12408;DHT22;6268;48.188;17.134;2024-01-16T07:31:00;3.90;95.40
12408;DHT22;6268;48.188;17.134;2024-01-16T07:33:29;4.10;94.40
12408;DHT22;6268;48.188;17.134;2024-01-16T07:35:58;4.40;93.80
12408;DHT22;6268;48.188;17.134;2024-01-16T07:38:27;4.60;92.40
12408;DHT22;6268;48.188;17.134;2024-01-16T07:40:55;4.90;90.80
12408;DHT22;6268;48.188;17.134;2024-01-16T07:43:24;5.00;90.20
12408;DHT22;6268;48.188;17.134;2024-01-16T07:45:53;5.30;89.00
12408;DHT22;6268;48.188;17.134;2024-01-16T18:34:28;5.60;90.40
12408;DHT22;6268;48.188;17.134;2024-01-16T18:39:27;2.70;72.00
12408;DHT22;6268;48.188;17.134;2024-01-16T18:41:56;2.80;71.40
12408;DHT22;6268;48.188;17.134;2024-01-16T18:44:26;2.80;71.40
12408;DHT22;6268;48.188;17.134;2024-01-16T18:46:55;2.80;71.10
12408;DHT22;6268;48.188;17.134;2024-01-16T18:49:23;2.70;73.10
12408;DHT22;6268;48.188;17.134;2024-01-16T18:51:54;2.60;73.70
12408;DHT22;6268;48.188;17.134;2024-01-16T18:54:32;2.50;74.20
12408;DHT22;6268;48.188;17.134;2024-01-16T18:57:07;2.50;74.10
12408;DHT22;6268;48.188;17.134;2024-01-16T18:59:49;2.50;74.20
12408;DHT22;6268;48.188;17.134;2024-01-16T19:02:18;2.50;74.00
12408;DHT22;6268;48.188;17.134;2024-01-16T19:04:48;2.50;74.10
12408;DHT22;6268;48.188;17.134;2024-01-16T19:07:17;2.50;74.30
12408;DHT22;6268;48.188;17.134;2024-01-16T19:09:48;2.50;74.70
12408;DHT22;6268;48.188;17.134;2024-01-16T19:12:17;2.50;74.80
12408;DHT22;6268;48.188;17.134;2024-01-16T19:14:45;2.50;74.80
12408;DHT22;6268;48.188;17.134;2024-01-16T19:17:15;2.60;75.00
12408;DHT22;6268;48.188;17.134;2024-01-16T19:19:43;2.60;74.80
12408;DHT22;6268;48.188;17.134;2024-01-16T19:22:12;2.50;74.90
12408;DHT22;6268;48.188;17.134;2024-01-16T19:24:50;2.50;76.00
12408;DHT22;6268;48.188;17.134;2024-01-16T19:27:19;2.50;76.60
12408;DHT22;6268;48.188;17.134;2024-01-16T19:29:49;2.30;77.80
12408;DHT22;6268;48.188;17.134;2024-01-16T19:32:18;2.30;77.80
12408;DHT22;6268;48.188;17.134;2024-01-16T19:34:46;2.30;78.10
12408;DHT22;6268;48.188;17.134;2024-01-16T19:37:15;2.20;78.10
12408;DHT22;6268;48.188;17.134;2024-01-16T19:39:44;2.20;78.60
12408;DHT22;6268;48.188;17.134;2024-01-16T19:42:15;2.20;78.80
12408;DHT22;6268;48.188;17.134;2024-01-16T19:44:46;2.20;80.00
12408;DHT22;6268;48.188;17.134;2024-01-16T19:47:15;2.20;80.70
12408;DHT22;6268;48.188;17.134;2024-01-16T19:49:44;2.10;80.70
12408;DHT22;6268;48.188;17.134;2024-01-16T19:52:13;2.10;80.90
12408;DHT22;6268;48.188;17.134;2024-01-16T19:54:41;2.10;81.00
12408;DHT22;6268;48.188;17.134;2024-01-16T19:57:11;2.00;81.10
12408;DHT22;6268;48.188;17.134;2024-01-16T19:59:41;2.00;81.40
12408;DHT22;6268;48.188;17.134;2024-01-16T20:02:10;2.10;81.60
12408;DHT22;6268;48.188;17.134;2024-01-16T20:04:39;2.10;81.70
12408;DHT22;6268;48.188;17.134;2024-01-16T20:07:08;2.10;82.00
12408;DHT22;6268;48.188;17.134;2024-01-16T20:09:38;2.10;82.30
12408;DHT22;6268;48.188;17.134;2024-01-16T20:12:07;2.10;82.80
12408;DHT22;6268;48.188;17.134;2024-01-16T20:14:41;2.00;83.30
12408;DHT22;6268;48.188;17.134;2024-01-16T20:17:10;2.00;83.70
12408;DHT22;6268;48.188;17.134;2024-01-16T20:19:39;2.10;83.80
12408;DHT22;6268;48.188;17.134;2024-01-16T20:22:08;2.00;83.50
12408;DHT22;6268;48.188;17.134;2024-01-16T20:24:37;2.00;83.80
12408;DHT22;6268;48.188;17.134;2024-01-16T20:27:06;1.90;84.50
12408;DHT22;6268;48.188;17.134;2024-01-16T20:29:34;1.90;84.70
12408;DHT22;6268;48.188;17.134;2024-01-16T20:32:05;1.90;84.80
12408;DHT22;6268;48.188;17.134;2024-01-16T20:34:34;1.90;85.40
12408;DHT22;6268;48.188;17.134;2024-01-16T20:37:03;1.90;86.00
12408;DHT22;6268;48.188;17.134;2024-01-16T20:39:32;1.90;86.30
12408;DHT22;6268;48.188;17.134;2024-01-16T20:42:01;1.80;86.60
12408;DHT22;6268;48.188;17.134;2024-01-16T20:44:30;1.80;86.70
12408;DHT22;6268;48.188;17.134;2024-01-16T20:47:00;1.80;86.80
12408;DHT22;6268;48.188;17.134;2024-01-16T20:49:30;1.60;87.80
12408;DHT22;6268;48.188;17.134;2024-01-16T20:51:59;1.50;88.60
12408;DHT22;6268;48.188;17.134;2024-01-16T20:54:28;1.50;89.40
12408;DHT22;6268;48.188;17.134;2024-01-16T20:56:58;1.50;89.60
12408;DHT22;6268;48.188;17.134;2024-01-16T20:59:28;1.50;89.70
12408;DHT22;6268;48.188;17.134;2024-01-16T21:01:56;1.40;89.80
12408;DHT22;6268;48.188;17.134;2024-01-16T21:04:25;1.40;90.00
12408;DHT22;6268;48.188;17.134;2024-01-16T21:06:54;1.40;90.30
12408;DHT22;6268;48.188;17.134;2024-01-16T21:09:31;1.40;90.50
12408;DHT22;6268;48.188;17.134;2024-01-16T21:12:00;1.30;91.00
12408;DHT22;6268;48.188;17.134;2024-01-16T21:14:31;1.30;91.70
12408;DHT22;6268;48.188;17.134;2024-01-16T21:17:00;1.30;92.10
12408;DHT22;6268;48.188;17.134;2024-01-16T21:19:33;1.20;92.30
12408;DHT22;6268;48.188;17.134;2024-01-16T21:22:04;1.20;92.70
12408;DHT22;6268;48.188;17.134;2024-01-16T21:24:33;1.20;93.30
12408;DHT22;6268;48.188;17.134;2024-01-16T21:27:02;1.10;93.50
12408;DHT22;6268;48.188;17.134;2024-01-16T21:29:30;1.10;94.70
12408;DHT22;6268;48.188;17.134;2024-01-16T21:31:59;1.00;97.50
12408;DHT22;6268;48.188;17.134;2024-01-16T21:34:27;1.10;99.30
12408;DHT22;6268;48.188;17.134;2024-01-16T21:36:56;1.10;99.90
12408;DHT22;6268;48.188;17.134;2024-01-16T21:39:26;1.10;99.90
12408;DHT22;6268;48.188;17.134;2024-01-16T21:41:55;1.10;99.90
12408;DHT22;6268;48.188;17.134;2024-01-16T21:44:24;1.10;99.90
12408;DHT22;6268;48.188;17.134;2024-01-16T21:46:53;1.10;99.90
12408;DHT22;6268;48.188;17.134;2024-01-16T21:49:21;1.10;99.90
12408;DHT22;6268;48.188;17.134;2024-01-16T21:51:50;1.10;99.90
12408;DHT22;6268;48.188;17.134;2024-01-16T21:54:20;0.90;99.90
12408;DHT22;6268;48.188;17.134;2024-01-16T21:56:50;0.90;99.90
12408;DHT22;6268;48.188;17.134;2024-01-16T21:59:18;0.90;99.90
12408;DHT22;6268;48.188;17.134;2024-01-16T22:01:47;0.90;99.90
12408;DHT22;6268;48.188;17.134;2024-01-16T22:04:16;0.90;99.90
12408;DHT22;6268;48.188;17.134;2024-01-16T22:06:45;1.00;99.90
12408;DHT22;6268;48.188;17.134;2024-01-16T22:09:14;1.00;99.90
12408;DHT22;6268;48.188;17.134;2024-01-16T22:11:49;1.10;99.90
12408;DHT22;6268;48.188;17.134;2024-01-16T22:14:17;1.20;99.90
12408;DHT22;6268;48.188;17.134;2024-01-16T22:16:46;1.20;99.90
12408;DHT22;6268;48.188;17.134;2024-01-16T22:19:14;1.20;99.90
12408;DHT22;6268;48.188;17.134;2024-01-16T22:21:43;1.20;99.90
12408;DHT22;6268;48.188;17.134;2024-01-16T22:24:11;1.20;99.90
12408;DHT22;6268;48.188;17.134;2024-01-16T22:26:40;1.10;99.90
12408;DHT22;6268;48.188;17.134;2024-01-16T22:29:10;1.10;99.90
12408;DHT22;6268;48.188;17.134;2024-01-16T22:31:40;1.10;99.90
12408;DHT22;6268;48.188;17.134;2024-01-16T22:34:09;1.00;99.90
12408;DHT22;6268;48.188;17.134;2024-01-16T22:36:38;1.00;99.90
12408;DHT22;6268;48.188;17.134;2024-01-16T23:19:02;1.00;99.90
12408;DHT22;6268;48.188;17.134;2024-01-16T23:21:32;0.60;99.90
12408;DHT22;6268;48.188;17.134;2024-01-16T23:24:00;0.60;99.90
12408;DHT22;6268;48.188;17.134;2024-01-16T23:26:30;0.60;99.90
12408;DHT22;6268;48.188;17.134;2024-01-16T23:28:58;0.50;99.90
12408;DHT22;6268;48.188;17.134;2024-01-16T23:31:27;0.50;99.90
12408;DHT22;6268;48.188;17.134;2024-01-16T23:33:55;0.50;99.90
12408;DHT22;6268;48.188;17.134;2024-01-16T23:36:26;0.40;99.90
12408;DHT22;6268;48.188;17.134;2024-01-16T23:38:55;0.40;99.90
12408;DHT22;6268;48.188;17.134;2024-01-16T23:41:25;0.50;99.90
12408;DHT22;6268;48.188;17.134;2024-01-16T23:43:54;0.40;99.90
12408;DHT22;6268;48.188;17.134;2024-01-16T23:46:23;0.30;99.90
12408;DHT22;6268;48.188;17.134;2024-01-16T23:48:52;0.30;99.90
12408;DHT22;6268;48.188;17.134;2024-01-16T23:51:28;0.30;99.90
12408;DHT22;6268;48.188;17.134;2024-01-16T23:53:58;0.20;99.90
12408;DHT22;6268;48.188;17.134;2024-01-16T23:56:28;0.20;99.90
12408;DHT22;6268;48.188;17.134;2024-01-16T23:58:57;0.10;99.90
